Cable, Ohio
Current Conditions -  °F | °C
As of 7:54 AM on Tuesday 21 Oct 2014 (Local Time) from KMRT Reporting Station
Overcast Overcast  
Wind Chill: 43°   Ceiling: 1100
Heat Index: 47°   Visibility: 10mi
Dew Point: 43°   Wind: 9mph
Humidity: 85%   Direction: 330°NNW
Pressure: 29.94"   Gusts: NA
Location:  40.17°N, 83.63°W
Report Text: KMRT 211154Z AUTO 33008KT 10SM BKN011 OVC029 09/06 A2994 RMK AO2 T00860062 10096 20085
Loading
Personal Weather Stations






























Interactive Weather Map
Tropical Storm Tracking
New forecast layout! Learn more

10-Day Weather Forecast

Advertisements
Track Severe Weather on mobile